»·PEaware :: N6229P KPHX-KPRC

N6229P :: KPHX-KPRC

FLIGHT INFORMATION

Flight Status: Arrived
Operator: Privately registered:
United States
More flights under this callsign
Pilot: Anonymous 33184 (33184)
Aircraft: PIPER PA-24 COMMANCHE
(PA24)
More flights by this aircraft type
Origin: KPHX Phoenix Sky Harbor Intl
United States
Destination: KPRC Love
United States
More flights between these airports :: More routes between these airports
Route: KARLO
File this flight plan on PilotEdge
Remarks: Class B Departure OPS
Altitude:
(Current/Filed)
8,500ft
Speed:
(Current/Filed)
130kts
Departed: 05-Jan-22 03:15 PM
Arrived: 05-Jan-22 03:54 PM
Distance/Time
Traveled:
76nm/0:39
Distance/Time
To Go:
Arrived

Flight Plot

Page will automatically refresh every two minutes.

Flight plan parsing failed; only flown route is shown


Map Options




Map Legend


Flown Route
Filed Route
Departure Airport
Arrival Airport
Navaid (VOR, NDB)
Fix

Horizontal Profiles

Position Reports

Time Latitude Longitude Heading Altitude Ground
Speed
05-Jan-22 14:54 33.426327 -112.023485 40 1138ft 0kts
05-Jan-22 14:55 33.426327 -112.023485 40 1138ft 0kts
05-Jan-22 14:56 33.426327 -112.023485 40 1138ft 0kts
05-Jan-22 14:57 33.426327 -112.023484 40 1138ft 0kts
05-Jan-22 14:58 33.426330 -112.023481 40 1138ft 0kts
05-Jan-22 14:59 33.426332 -112.023479 40 1138ft 0kts
05-Jan-22 15:00 33.426335 -112.023476 40 1138ft 0kts
05-Jan-22 15:01 33.426338 -112.023473 40 1138ft 0kts
05-Jan-22 15:02 33.426340 -112.023470 40 1138ft 0kts
05-Jan-22 15:03 33.426343 -112.023468 40 1138ft 0kts
05-Jan-22 15:04 33.426346 -112.023465 40 1138ft 0kts
05-Jan-22 15:05 33.426348 -112.023462 40 1138ft 0kts
05-Jan-22 15:06 33.426351 -112.023460 40 1138ft 0kts
05-Jan-22 15:07 33.427515 -112.024409 326 1138ft 7kts
05-Jan-22 15:08 33.427712 -112.026758 305 1138ft 0kts
05-Jan-22 15:09 33.427714 -112.026762 305 1138ft 0kts
05-Jan-22 15:10 33.427720 -112.026772 305 1138ft 0kts
05-Jan-22 15:11 33.427723 -112.026776 305 1138ft 0kts
05-Jan-22 15:12 33.427725 -112.026779 305 1138ft 0kts
05-Jan-22 15:13 33.428340 -112.026971 348 1138ft 9kts
05-Jan-22 15:14 33.428831 -112.008472 90 1461ft 114kts
05-Jan-22 15:15 33.433097 -111.970311 48 2752ft 126kts
05-Jan-22 15:16 33.456299 -111.936183 47 3635ft 158kts
05-Jan-22 15:17 33.485737 -111.892467 51 3349ft 170kts
05-Jan-22 15:18 33.517148 -111.851617 21 3256ft 162kts
05-Jan-22 15:19 33.561653 -111.848478 2 3538ft 159kts
05-Jan-22 15:20 33.604512 -111.844506 9 4151ft 147kts
05-Jan-22 15:21 33.644304 -111.841388 1 5080ft 142kts
05-Jan-22 15:22 33.683500 -111.839869 0 5957ft 142kts
05-Jan-22 15:23 33.723405 -111.837859 2 6835ft 147kts
05-Jan-22 15:24 33.765780 -111.832801 5 7421ft 140kts
05-Jan-22 15:25 33.801870 -111.826122 4 8586ft 140kts
05-Jan-22 15:26 33.843730 -111.820265 4 8761ft 155kts
05-Jan-22 15:27 33.885233 -111.822203 328 8609ft 152kts
05-Jan-22 15:28 33.921939 -111.847601 332 8697ft 152kts
05-Jan-22 15:29 33.958047 -111.873871 321 8795ft 152kts
05-Jan-22 15:30 33.993053 -111.904460 326 8582ft 157kts
05-Jan-22 15:31 34.029409 -111.933786 327 8700ft 158kts
05-Jan-22 15:32 34.066739 -111.961574 329 8598ft 156kts
05-Jan-22 15:33 34.105191 -111.986474 323 8664ft 156kts
05-Jan-22 15:34 34.140095 -112.018463 324 8537ft 157kts
05-Jan-22 15:35 34.176400 -112.046674 329 8473ft 153kts
05-Jan-22 15:36 34.212650 -112.073679 326 8445ft 150kts
05-Jan-22 15:37 34.248055 -112.100306 334 8626ft 151kts
05-Jan-22 15:38 34.282189 -112.129398 328 8638ft 150kts
05-Jan-22 15:39 34.319258 -112.153481 324 8850ft 152kts
05-Jan-22 15:40 34.353146 -112.184398 328 8953ft 152kts
05-Jan-22 15:41 34.389462 -112.208881 331 9166ft 153kts
05-Jan-22 15:42 34.424184 -112.234220 328 8900ft 148kts
05-Jan-22 15:43 34.459927 -112.260503 330 8245ft 150kts
05-Jan-22 15:44 34.495828 -112.286804 328 7849ft 153kts
05-Jan-22 15:45 34.531424 -112.315040 327 7288ft 156kts
05-Jan-22 15:46 34.568176 -112.341987 327 6841ft 159kts
05-Jan-22 15:47 34.605127 -112.370432 328 6149ft 150kts
05-Jan-22 15:48 34.632373 -112.403399 315 5702ft 127kts
05-Jan-22 15:49 34.654476 -112.383991 57 5686ft 114kts
05-Jan-22 15:50 34.675215 -112.375748 309 5958ft 98kts
05-Jan-22 15:51 34.671825 -112.400774 226 5490ft 87kts
05-Jan-22 15:52 34.656158 -112.417639 222 5048ft 44kts
05-Jan-22 15:53 34.650136 -112.423736 149 5048ft 8kts
05-Jan-22 15:54 34.649815 -112.423390 135 5048ft 0kts
05-Jan-22 15:55 34.649813 -112.423387 135 5048ft 0kts
05-Jan-22 15:56 34.648676 -112.421685 44 5048ft 0kts
05-Jan-22 15:57 34.649017 -112.421282 44 5048ft 0kts
05-Jan-22 15:58 34.649019 -112.421280 44 5048ft 0kts
05-Jan-22 15:59 34.649019 -112.421280 44 5048ft 0kts
05-Jan-22 16:00 34.649019 -112.421280 44 5048ft 0kts

Navigation Log

Ident Type
Flight plan parsing failed, navigation log unavailable